Time;durP1;ratioP1;P1;durP2;ratioP2;P2;SDS_P1;SDS_P2;PMS_P1;PMS_P2;Temp;Humidity;BMP_temperature;BMP_pressure;BME280_temperature;BME280_humidity;BME280_pressure;Samples;Min_cycle;Max_cycle;Signal;HPM_P1;HPM_P2
2023/04/21 00:00:52;;;;;;;56.05;38.75;;;8.10;99.90;;;;;;5061497;28;20032;-56
2023/04/21 00:03:20;;;;;;;56.88;40.65;;;8.00;99.90;;;;;;5063303;28;20033;-57
2023/04/21 00:05:47;;;;;;;56.40;36.80;;;8.00;99.90;;;;;;5076866;28;20075;-56
2023/04/21 00:08:13;;;;;;;53.35;38.75;;;7.90;99.90;;;;;;5064350;28;20064;-57
2023/04/21 00:10:39;;;;;;;58.92;39.92;;;8.00;99.90;;;;;;5071253;28;20066;-57
2023/04/21 00:13:04;;;;;;;54.33;37.53;;;8.10;99.90;;;;;;5065087;28;20159;-57
2023/04/21 00:15:30;;;;;;;51.95;37.08;;;8.00;99.90;;;;;;5070447;28;20045;-56
2023/04/21 00:17:57;;;;;;;52.95;36.75;;;8.00;99.90;;;;;;5071596;28;20052;-56
2023/04/21 00:20:25;;;;;;;52.70;35.65;;;8.00;99.90;;;;;;5069989;28;20043;-57
2023/04/21 00:22:51;;;;;;;52.65;36.08;;;7.90;99.90;;;;;;5071563;28;20045;-57
2023/04/21 00:25:17;;;;;;;52.25;35.40;;;8.00;99.90;;;;;;5063690;28;20843;-57
2023/04/21 00:27:43;;;;;;;54.10;35.67;;;8.20;99.90;;;;;;5067091;28;20033;-51
2023/04/21 00:30:08;;;;;;;47.80;32.50;;;8.10;99.90;;;;;;5076542;28;20036;-48
2023/04/21 00:32:34;;;;;;;49.63;34.05;;;8.00;99.90;;;;;;5067337;28;20094;-51
2023/04/21 00:35:00;;;;;;;48.28;33.42;;;8.10;99.90;;;;;;5063454;28;20071;-53
2023/04/21 00:37:26;;;;;;;51.85;34.13;;;8.10;99.90;;;;;;5064435;28;20040;-53
2023/04/21 00:39:51;;;;;;;53.67;35.17;;;8.00;99.90;;;;;;5059968;28;20400;-50
2023/04/21 00:42:17;;;;;;;51.60;33.85;;;8.00;99.90;;;;;;5059393;28;20098;-48
2023/04/21 00:44:42;;;;;;;48.25;32.72;;;8.10;99.90;;;;;;5065242;28;20044;-52
2023/04/21 00:47:08;;;;;;;49.53;34.65;;;8.10;99.90;;;;;;5064269;28;20093;-52
2023/04/21 00:49:34;;;;;;;49.97;33.50;;;8.10;99.90;;;;;;5063977;27;20044;-48
2023/04/21 00:52:00;;;;;;;51.47;35.05;;;7.90;99.90;;;;;;5061642;28;20063;-48
2023/04/21 00:54:26;;;;;;;44.67;30.90;;;8.10;99.90;;;;;;5060081;28;20111;-47
2023/04/21 00:56:52;;;;;;;52.08;35.55;;;8.00;99.90;;;;;;5069743;28;20044;-51
2023/04/21 00:59:18;;;;;;;48.97;34.70;;;8.00;99.90;;;;;;5069098;28;20041;-52
2023/04/21 01:01:43;;;;;;;52.63;33.90;;;8.10;99.90;;;;;;5063078;28;20134;-49
2023/04/21 01:04:09;;;;;;;48.70;33.58;;;8.00;99.90;;;;;;5064612;28;20402;-50
2023/04/21 01:06:35;;;;;;;51.28;33.95;;;8.10;99.90;;;;;;5067265;28;20045;-50
2023/04/21 01:09:01;;;;;;;54.95;35.50;;;8.20;99.90;;;;;;5064544;28;20027;-53
2023/04/21 01:11:27;;;;;;;51.08;35.28;;;8.20;99.90;;;;;;5063504;28;20070;-50
2023/04/21 01:13:53;;;;;;;54.53;36.28;;;8.30;99.90;;;;;;5067879;28;20060;-51
2023/04/21 01:16:20;;;;;;;48.75;35.25;;;8.30;99.90;;;;;;5073182;28;20036;-52
2023/04/21 01:18:46;;;;;;;53.28;35.83;;;8.30;99.90;;;;;;5060273;28;20113;-53
2023/04/21 01:21:12;;;;;;;52.05;35.75;;;8.40;99.90;;;;;;5077593;28;20042;-52
2023/04/21 01:23:41;;;;;;;51.83;34.85;;;8.20;99.90;;;;;;5067259;28;20430;-51
2023/04/21 01:26:06;;;;;;;53.15;36.80;;;8.30;99.90;;;;;;5068053;28;20033;-52
2023/04/21 01:28:32;;;;;;;50.78;35.90;;;8.20;99.90;;;;;;5064729;28;20037;-50
2023/04/21 01:30:58;;;;;;;50.05;35.00;;;8.20;99.90;;;;;;5069241;28;20105;-53
2023/04/21 01:33:23;;;;;;;55.95;37.13;;;8.10;99.90;;;;;;5069482;28;20047;-51
2023/04/21 01:35:49;;;;;;;55.22;35.97;;;8.10;99.90;;;;;;5064699;28;20029;-50
2023/04/21 01:38:18;;;;;;;55.88;36.78;;;8.00;99.90;;;;;;5061316;28;20078;-50
2023/04/21 01:40:52;;;;;;;55.03;37.30;;;8.00;99.90;;;;;;5065356;28;20451;-51
2023/04/21 01:43:20;;;;;;;55.47;36.35;;;8.00;99.90;;;;;;5066927;27;20068;-52
2023/04/21 01:45:46;;;;;;;63.15;38.83;;;8.00;99.90;;;;;;5066273;28;20040;-52
2023/04/21 01:48:12;;;;;;;61.40;39.25;;;8.00;99.90;;;;;;5061812;28;20106;-53
2023/04/21 01:50:38;;;;;;;57.53;37.38;;;8.20;99.90;;;;;;5064463;28;20040;-54
2023/04/21 01:53:03;;;;;;;60.35;39.08;;;8.30;99.90;;;;;;5069659;28;20036;-53
2023/04/21 01:55:29;;;;;;;56.40;37.80;;;8.20;99.90;;;;;;5056008;28;20116;-54
2023/04/21 01:57:58;;;;;;;62.15;39.00;;;8.10;99.90;;;;;;5052631;28;20059;-53
2023/04/21 02:00:24;;;;;;;60.75;38.35;;;8.10;99.90;;;;;;5056410;28;20585;-54
2023/04/21 02:02:50;;;;;;;61.03;37.83;;;8.30;99.90;;;;;;5067578;28;20039;-50
2023/04/21 02:05:15;;;;;;;57.13;37.58;;;8.40;99.90;;;;;;5062093;28;20040;-53
2023/04/21 02:07:41;;;;;;;57.40;37.45;;;8.20;99.90;;;;;;5073108;28;20082;-50
2023/04/21 02:10:07;;;;;;;59.28;37.58;;;8.30;99.90;;;;;;5068502;28;20036;-54
2023/04/21 02:12:32;;;;;;;61.63;38.22;;;8.40;99.90;;;;;;5062289;28;20037;-53
2023/04/21 02:14:58;;;;;;;65.22;39.00;;;8.60;99.90;;;;;;5073993;28;20116;-53
2023/04/21 02:17:23;;;;;;;67.65;40.03;;;8.70;99.90;;;;;;5067095;28;20057;-54
2023/04/21 02:19:49;;;;;;;64.45;39.20;;;8.80;99.90;;;;;;5058530;28;20337;-53
2023/04/21 02:22:15;;;;;;;61.35;38.13;;;8.60;99.90;;;;;;5064621;28;20780;-54
2023/04/21 02:24:40;;;;;;;62.42;38.08;;;8.60;99.90;;;;;;5072749;28;20039;-52
2023/04/21 02:27:06;;;;;;;60.63;39.10;;;8.50;99.90;;;;;;5068639;28;20060;-54
2023/04/21 02:29:31;;;;;;;57.60;38.42;;;8.60;99.90;;;;;;5082035;28;20124;-53
2023/04/21 02:31:57;;;;;;;57.40;37.10;;;8.60;99.90;;;;;;5074925;28;20384;-54
2023/04/21 02:34:22;;;;;;;62.60;37.53;;;8.60;99.90;;;;;;5076467;28;20400;-52
2023/04/21 02:36:48;;;;;;;59.90;37.83;;;8.60;99.90;;;;;;5066917;28;20496;-53
2023/04/21 02:39:14;;;;;;;57.25;36.53;;;8.60;99.90;;;;;;5077154;28;20036;-53
2023/04/21 02:41:39;;;;;;;59.25;36.45;;;8.70;99.90;;;;;;5067641;28;20087;-53
2023/04/21 02:44:05;;;;;;;59.55;36.83;;;8.70;99.90;;;;;;5072427;28;20032;-54
2023/04/21 02:46:31;;;;;;;55.25;36.35;;;8.70;99.90;;;;;;5069323;28;20632;-54
2023/04/21 02:48:56;;;;;;;60.10;37.28;;;8.70;99.90;;;;;;5078201;28;20118;-54
2023/04/21 02:51:22;;;;;;;61.95;37.85;;;8.50;99.90;;;;;;5063612;28;20036;-53
2023/04/21 02:53:47;;;;;;;60.72;37.55;;;8.70;99.90;;;;;;5056274;28;20040;-54
2023/04/21 02:56:13;;;;;;;62.10;40.13;;;8.70;99.90;;;;;;5062840;28;20463;-54
2023/04/21 02:58:39;;;;;;;60.38;38.45;;;8.70;99.90;;;;;;5063858;28;20560;-52
2023/04/21 03:01:05;;;;;;;59.65;38.33;;;8.70;99.90;;;;;;5063385;28;20658;-54
2023/04/21 03:03:31;;;;;;;63.55;37.88;;;8.60;99.90;;;;;;5065045;28;20036;-53
2023/04/21 03:06:01;;;;;;;59.65;37.75;;;8.60;99.90;;;;;;5079568;27;20046;-54
2023/04/21 03:08:27;;;;;;;62.60;37.63;;;8.60;99.90;;;;;;5063828;28;20052;-53
2023/04/21 03:10:52;;;;;;;61.00;39.25;;;8.70;99.90;;;;;;5071330;27;20140;-54
2023/04/21 03:13:19;;;;;;;62.25;38.35;;;8.60;99.90;;;;;;5063912;28;20452;-55
2023/04/21 03:15:45;;;;;;;59.42;38.30;;;8.60;99.90;;;;;;5064453;28;20035;-54
2023/04/21 03:18:10;;;;;;;59.35;37.88;;;8.70;99.90;;;;;;5060924;28;20028;-54
2023/04/21 03:20:36;;;;;;;59.92;37.15;;;8.90;99.90;;;;;;5069021;28;20444;-54
2023/04/21 03:23:02;;;;;;;60.83;38.55;;;8.90;99.90;;;;;;5068774;28;20105;-55
2023/04/21 03:25:28;;;;;;;60.97;36.72;;;8.80;99.90;;;;;;5073671;28;20047;-54
2023/04/21 03:27:54;;;;;;;58.35;36.80;;;8.70;99.90;;;;;;5057994;28;20047;-54
2023/04/21 03:30:20;;;;;;;58.13;36.30;;;8.70;99.90;;;;;;5063159;28;20040;-53
2023/04/21 03:32:45;;;;;;;54.38;35.38;;;8.70;99.90;;;;;;5065703;28;20047;-53
2023/04/21 03:35:11;;;;;;;57.67;35.33;;;8.70;99.90;;;;;;5069746;27;20081;-55
2023/04/21 03:37:37;;;;;;;55.92;36.00;;;8.70;99.90;;;;;;5068476;28;20125;-54
2023/04/21 03:40:04;;;;;;;55.88;35.10;;;8.60;99.90;;;;;;5067568;28;20086;-55
2023/04/21 03:42:30;;;;;;;53.70;34.70;;;8.50;99.90;;;;;;5069524;28;20040;-55
2023/04/21 03:45:00;;;;;;;54.63;36.67;;;8.50;99.90;;;;;;5064521;28;20166;-54
2023/04/21 03:47:25;;;;;;;58.30;36.58;;;8.50;99.90;;;;;;5066655;28;20058;-54
2023/04/21 03:49:51;;;;;;;52.95;35.35;;;8.50;99.90;;;;;;5069486;28;20322;-55
2023/04/21 03:52:16;;;;;;;56.28;36.20;;;8.60;99.90;;;;;;5064226;28;20426;-55
2023/04/21 03:54:42;;;;;;;55.35;36.58;;;8.40;99.90;;;;;;5059843;28;20097;-54
2023/04/21 03:57:07;;;;;;;55.53;35.22;;;8.30;99.90;;;;;;5071173;28;20467;-55
2023/04/21 03:59:33;;;;;;;53.88;35.17;;;8.50;99.90;;;;;;5067602;28;20059;-53
2023/04/21 04:01:59;;;;;;;58.50;35.13;;;8.40;99.90;;;;;;5067992;28;20521;-54
2023/04/21 04:04:24;;;;;;;53.72;34.22;;;8.30;99.90;;;;;;5067407;28;20032;-54
2023/04/21 04:06:50;;;;;;;50.80;33.40;;;8.30;99.90;;;;;;5074415;28;20064;-55
2023/04/21 04:09:15;;;;;;;51.08;33.22;;;8.20;99.90;;;;;;5065922;28;20123;-54
2023/04/21 04:11:41;;;;;;;51.80;34.17;;;8.20;99.90;;;;;;5062709;28;20132;-53
2023/04/21 04:14:07;;;;;;;45.72;31.02;;;8.10;99.90;;;;;;5061159;28;20075;-55
2023/04/21 04:16:34;;;;;;;53.75;33.97;;;8.10;99.90;;;;;;5061923;28;20203;-54
2023/04/21 04:19:00;;;;;;;50.83;34.20;;;8.00;99.90;;;;;;5067689;28;20067;-54
2023/04/21 04:21:26;;;;;;;48.92;32.38;;;8.10;99.90;;;;;;5049293;28;20221;-53
2023/04/21 04:23:52;;;;;;;46.22;30.48;;;8.10;99.90;;;;;;5058019;28;20078;-54
2023/04/21 04:26:18;;;;;;;45.90;30.65;;;8.10;99.90;;;;;;5067175;28;20544;-58
2023/04/21 04:28:44;;;;;;;48.25;32.67;;;8.00;99.90;;;;;;5058261;28;20063;-56
2023/04/21 04:31:09;;;;;;;49.08;31.67;;;8.10;99.90;;;;;;5074240;28;20058;-54
2023/04/21 04:33:35;;;;;;;48.85;31.88;;;8.10;99.90;;;;;;5075529;27;20033;-55
2023/04/21 04:36:00;;;;;;;52.25;33.50;;;8.00;99.90;;;;;;5061057;28;20036;-55
2023/04/21 04:38:27;;;;;;;47.78;31.33;;;8.10;99.90;;;;;;5063935;28;20071;-53
2023/04/21 04:41:00;;;;;;;46.83;31.13;;;8.00;99.90;;;;;;5070100;28;20043;-53
2023/04/21 04:43:25;;;;;;;47.10;30.98;;;8.00;99.90;;;;;;5051025;28;20040;-54
2023/04/21 04:45:51;;;;;;;50.65;33.25;;;8.00;99.90;;;;;;5066647;27;20036;-55
2023/04/21 04:48:17;;;;;;;51.30;33.38;;;8.10;99.90;;;;;;5067427;28;20389;-54
2023/04/21 04:50:43;;;;;;;52.05;34.58;;;8.20;99.90;;;;;;5067202;28;20143;-54
2023/04/21 04:53:08;;;;;;;51.80;32.88;;;8.20;99.90;;;;;;5074136;28;20109;-54
2023/04/21 04:55:34;;;;;;;50.97;33.47;;;8.20;99.90;;;;;;5063784;28;20120;-55
2023/04/21 04:58:00;;;;;;;49.30;32.95;;;8.20;99.90;;;;;;5065651;28;20032;-55
2023/04/21 05:00:27;;;;;;;46.60;31.48;;;8.20;99.90;;;;;;5063501;28;20036;-55
2023/04/21 05:02:53;;;;;;;46.85;31.00;;;8.10;99.90;;;;;;5066481;28;20036;-56
2023/04/21 05:05:20;;;;;;;45.25;29.80;;;8.00;99.90;;;;;;5066254;28;20028;-56
2023/04/21 05:07:46;;;;;;;44.90;30.20;;;7.90;99.90;;;;;;5058545;28;20037;-54
2023/04/21 05:10:12;;;;;;;46.33;31.02;;;7.90;99.90;;;;;;5064989;28;20041;-56
2023/04/21 05:12:38;;;;;;;43.60;30.70;;;7.90;99.90;;;;;;5061101;28;20047;-56
2023/04/21 05:15:05;;;;;;;46.83;29.50;;;7.90;99.90;;;;;;5056921;28;20373;-56
2023/04/21 05:17:32;;;;;;;46.83;30.83;;;7.90;99.90;;;;;;5062833;28;20789;-59
2023/04/21 05:19:57;;;;;;;49.72;32.67;;;8.10;99.90;;;;;;5074550;28;20115;-59
2023/04/21 05:22:23;;;;;;;43.30;28.25;;;8.10;99.90;;;;;;5065532;28;20535;-59
2023/04/21 05:24:49;;;;;;;47.30;30.48;;;8.10;99.90;;;;;;5057582;28;20137;-60
2023/04/21 05:27:14;;;;;;;48.80;31.02;;;8.10;99.90;;;;;;5058924;27;20124;-60
2023/04/21 05:29:40;;;;;;;59.60;35.45;;;8.20;99.90;;;;;;5069751;28;20048;-60
2023/04/21 05:32:05;;;;;;;60.10;38.03;;;8.40;99.90;;;;;;5062066;28;20124;-60
2023/04/21 05:34:31;;;;;;;55.53;35.60;;;8.90;99.90;;;;;;5064923;28;20100;-59
2023/04/21 05:36:57;;;;;;;59.10;36.72;;;8.90;99.90;;;;;;5067190;28;20036;-60
2023/04/21 05:39:22;;;;;;;54.10;35.05;;;8.80;99.90;;;;;;5071913;27;20048;-60
2023/04/21 05:41:48;;;;;;;59.20;36.35;;;8.80;99.90;;;;;;5058933;28;20483;-60
2023/04/21 05:44:16;;;;;;;63.85;39.45;;;8.90;99.90;;;;;;5070126;28;20690;-60
2023/04/21 05:46:42;;;;;;;59.75;37.58;;;9.20;99.90;;;;;;5065385;27;20573;-60
2023/04/21 05:49:07;;;;;;;60.42;37.25;;;9.40;99.90;;;;;;5072871;28;20119;-59
2023/04/21 05:51:33;;;;;;;59.85;36.78;;;9.60;99.90;;;;;;5068205;28;20413;-60
2023/04/21 05:53:58;;;;;;;57.33;36.05;;;9.70;99.90;;;;;;5068138;28;20420;-60
2023/04/21 05:56:24;;;;;;;55.90;34.83;;;9.80;99.90;;;;;;5064533;28;20162;-60
2023/04/21 05:58:50;;;;;;;50.83;33.50;;;9.90;99.90;;;;;;5077260;28;20037;-60
2023/04/21 06:01:15;;;;;;;51.80;32.75;;;9.90;99.90;;;;;;5069337;28;20032;-59
2023/04/21 06:03:41;;;;;;;46.38;31.45;;;9.90;99.90;;;;;;5065457;28;20052;-60
2023/04/21 06:06:08;;;;;;;48.28;31.73;;;9.90;99.90;;;;;;5065903;28;20025;-59
2023/04/21 06:08:33;;;;;;;48.13;32.85;;;9.80;99.90;;;;;;5060285;28;20029;-60
2023/04/21 06:10:59;;;;;;;54.35;32.08;;;9.80;99.90;;;;;;5068142;28;20036;-60
2023/04/21 06:13:26;;;;;;;49.55;32.92;;;9.80;99.90;;;;;;5074133;28;20437;-60
2023/04/21 06:15:52;;;;;;;51.10;33.10;;;9.90;99.90;;;;;;5067256;28;20033;-60
2023/04/21 06:18:18;;;;;;;48.40;32.35;;;9.90;99.90;;;;;;5058087;28;20032;-61
2023/04/21 06:20:50;;;;;;;48.25;32.25;;;9.90;99.90;;;;;;5061616;28;20446;-60
2023/04/21 06:23:16;;;;;;;48.67;33.03;;;10.00;99.90;;;;;;5066507;28;20104;-60
2023/04/21 06:25:41;;;;;;;48.10;32.20;;;10.00;99.90;;;;;;5064189;28;20623;-60
2023/04/21 06:28:07;;;;;;;47.05;32.35;;;10.10;99.90;;;;;;5069620;28;20044;-59
2023/04/21 06:30:32;;;;;;;49.08;32.58;;;10.10;99.90;;;;;;5062532;28;20040;-61
2023/04/21 06:32:58;;;;;;;52.58;32.88;;;10.10;99.90;;;;;;5066490;28;20521;-60
2023/04/21 06:35:23;;;;;;;48.00;31.58;;;10.10;99.90;;;;;;5061884;28;20376;-60
2023/04/21 06:37:49;;;;;;;46.53;31.70;;;10.00;99.90;;;;;;5064401;27;20412;-60
2023/04/21 06:40:15;;;;;;;47.95;31.67;;;10.00;99.90;;;;;;5065350;28;20033;-60
2023/04/21 06:42:41;;;;;;;47.92;30.98;;;10.00;99.90;;;;;;5065029;28;20140;-60
2023/04/21 06:45:07;;;;;;;48.08;32.60;;;10.10;99.90;;;;;;5062002;28;20036;-59
2023/04/21 06:47:32;;;;;;;46.80;31.83;;;10.10;99.90;;;;;;5059202;28;20589;-60
2023/04/21 06:49:58;;;;;;;43.88;30.15;;;10.20;99.90;;;;;;5053606;28;20040;-60
2023/04/21 06:52:23;;;;;;;45.20;31.63;;;10.30;99.90;;;;;;5056004;28;20089;-60
2023/04/21 06:54:49;;;;;;;48.42;32.22;;;10.30;99.90;;;;;;5060504;28;20054;-60
2023/04/21 06:57:16;;;;;;;44.00;32.33;;;10.50;99.90;;;;;;5063445;28;20032;-60
2023/04/21 06:59:41;;;;;;;42.90;29.90;;;10.50;99.90;;;;;;5056814;28;20035;-60
2023/04/21 07:02:07;;;;;;;42.20;30.02;;;10.60;99.90;;;;;;5057846;28;20388;-58
2023/04/21 07:04:32;;;;;;;40.30;27.85;;;10.50;99.90;;;;;;5064243;28;20341;-60
2023/04/21 07:06:58;;;;;;;41.53;26.75;;;10.50;99.90;;;;;;5064104;28;20117;-60
2023/04/21 07:09:23;;;;;;;38.72;26.85;;;10.60;99.90;;;;;;5065005;28;20385;-60
2023/04/21 07:11:49;;;;;;;38.95;27.25;;;10.60;99.90;;;;;;5069084;28;20037;-60
2023/04/21 07:14:14;;;;;;;36.13;25.48;;;10.60;99.90;;;;;;5073153;28;20039;-60
2023/04/21 07:16:40;;;;;;;35.75;25.08;;;10.60;99.90;;;;;;5063794;27;20492;-60
2023/04/21 07:19:06;;;;;;;33.40;24.58;;;10.60;99.90;;;;;;5068025;28;20416;-60
2023/04/21 07:21:34;;;;;;;37.55;25.98;;;10.70;99.90;;;;;;5067057;28;20040;-60
2023/04/21 07:24:01;;;;;;;33.78;24.83;;;10.70;99.90;;;;;;5063577;28;20098;-60
2023/04/21 07:26:26;;;;;;;37.55;27.15;;;10.80;99.90;;;;;;5072142;28;20589;-61
2023/04/21 07:28:54;;;;;;;38.83;28.08;;;10.80;99.90;;;;;;5082670;27;20040;-61
2023/04/21 07:31:20;;;;;;;36.75;27.25;;;11.00;99.90;;;;;;5061716;28;20160;-60
2023/04/21 07:33:45;;;;;;;36.40;27.10;;;11.10;99.90;;;;;;5069523;28;20124;-61
2023/04/21 07:36:11;;;;;;;36.80;27.00;;;11.20;99.90;;;;;;5068946;28;20025;-60
2023/04/21 07:38:37;;;;;;;37.95;26.85;;;11.20;99.90;;;;;;5067160;27;20536;-60
2023/04/21 07:41:03;;;;;;;41.05;27.58;;;11.30;99.90;;;;;;5062824;28;20137;-60
2023/04/21 07:43:30;;;;;;;35.08;26.48;;;11.40;99.90;;;;;;5067020;28;20047;-60
2023/04/21 07:45:56;;;;;;;42.70;30.90;;;11.40;99.90;;;;;;5074198;28;20051;-61
2023/04/21 07:48:22;;;;;;;42.03;30.13;;;11.30;99.90;;;;;;5069921;28;20173;-61
2023/04/21 07:50:49;;;;;;;32.63;25.33;;;11.30;99.90;;;;;;5074987;28;20135;-61
2023/04/21 07:53:15;;;;;;;34.78;25.30;;;11.40;99.90;;;;;;5060047;28;20116;-60
2023/04/21 07:55:40;;;;;;;32.35;23.60;;;11.40;99.90;;;;;;5065311;28;20392;-60
2023/04/21 07:58:06;;;;;;;34.28;25.73;;;11.30;99.90;;;;;;5068044;28;20101;-60
2023/04/21 08:00:32;;;;;;;34.13;25.30;;;11.30;99.90;;;;;;5073276;28;20121;-61
2023/04/21 08:02:58;;;;;;;33.45;24.77;;;11.40;99.90;;;;;;5056815;28;20233;-60
2023/04/21 08:05:23;;;;;;;33.97;24.23;;;11.50;99.90;;;;;;5070627;28;20039;-61
2023/04/21 08:07:49;;;;;;;31.77;24.38;;;11.60;99.90;;;;;;5069368;28;20412;-60
2023/04/21 08:10:15;;;;;;;30.35;23.27;;;11.60;99.90;;;;;;5062399;28;20032;-61
2023/04/21 08:12:41;;;;;;;33.78;23.95;;;11.70;99.90;;;;;;5069562;27;20078;-60
2023/04/21 08:15:07;;;;;;;33.30;23.38;;;11.70;99.90;;;;;;5063738;28;20447;-60
2023/04/21 08:17:33;;;;;;;30.77;22.80;;;11.70;99.90;;;;;;5071425;28;20129;-61
2023/04/21 08:20:00;;;;;;;33.35;23.73;;;11.80;99.90;;;;;;5061812;28;20662;-60
2023/04/21 08:22:25;;;;;;;29.73;21.88;;;11.80;99.90;;;;;;5070531;28;20047;-60
2023/04/21 08:24:51;;;;;;;31.45;23.00;;;11.80;99.90;;;;;;5054685;28;20036;-60
2023/04/21 08:27:16;;;;;;;32.70;23.02;;;12.00;99.90;;;;;;5059692;28;20085;-61
2023/04/21 08:29:42;;;;;;;33.25;23.20;;;12.10;99.90;;;;;;5061447;28;20098;-61
2023/04/21 08:32:08;;;;;;;30.05;21.13;;;12.20;99.90;;;;;;5061307;28;20121;-60
2023/04/21 08:34:34;;;;;;;32.00;22.27;;;12.30;99.90;;;;;;5067646;28;20048;-61
2023/04/21 08:37:00;;;;;;;30.75;21.70;;;12.40;99.90;;;;;;5064000;28;20063;-60
2023/04/21 08:39:25;;;;;;;29.83;21.75;;;12.40;99.90;;;;;;5059267;28;20079;-61
2023/04/21 08:41:51;;;;;;;29.65;22.50;;;12.50;99.90;;;;;;5058421;28;20093;-60
2023/04/21 08:44:18;;;;;;;32.67;22.13;;;12.40;99.90;;;;;;5066055;27;20043;-61
2023/04/21 08:46:46;;;;;;;31.58;22.73;;;12.50;99.90;;;;;;5069207;28;20122;-61
2023/04/21 08:49:14;;;;;;;29.85;21.15;;;12.60;99.90;;;;;;5060616;28;20048;-60
2023/04/21 08:51:40;;;;;;;31.27;22.92;;;12.60;99.90;;;;;;5075187;28;20048;-60
2023/04/21 08:54:05;;;;;;;32.92;23.73;;;12.70;99.90;;;;;;5069914;27;20038;-60
2023/04/21 08:56:31;;;;;;;29.05;21.58;;;12.70;99.90;;;;;;5061234;28;20457;-60
2023/04/21 08:58:56;;;;;;;33.65;24.13;;;12.70;99.90;;;;;;5065037;28;20748;-60
2023/04/21 09:01:22;;;;;;;35.58;25.35;;;12.60;99.90;;;;;;5052021;28;20098;-61
2023/04/21 09:03:47;;;;;;;33.35;25.25;;;12.60;99.90;;;;;;5058456;28;20043;-61
2023/04/21 09:06:13;;;;;;;34.03;25.52;;;12.80;99.90;;;;;;5049825;28;20601;-60
2023/04/21 09:08:43;;;;;;;35.20;27.13;;;12.70;99.90;;;;;;5063929;28;20122;-61
2023/04/21 09:11:13;;;;;;;37.83;27.35;;;12.80;99.90;;;;;;5053386;28;20029;-60
2023/04/21 09:13:38;;;;;;;35.25;25.55;;;12.80;99.90;;;;;;5046971;28;20031;-61
2023/04/21 09:16:14;;;;;;;33.78;25.38;;;12.70;99.90;;;;;;5049185;28;20037;-60
2023/04/21 09:18:41;;;;;;;34.03;24.80;;;12.80;99.90;;;;;;5063804;28;20035;-60
2023/04/21 09:21:09;;;;;;;35.15;25.55;;;12.80;99.90;;;;;;5059424;28;20354;-61
2023/04/21 09:23:42;;;;;;;32.28;25.13;;;12.90;99.90;;;;;;5050148;28;20028;-60
2023/04/21 09:26:08;;;;;;;36.28;25.60;;;13.00;99.90;;;;;;5057904;28;20033;-60
2023/04/21 09:28:34;;;;;;;37.33;26.15;;;13.00;99.90;;;;;;5054163;28;20645;-60
2023/04/21 09:30:59;;;;;;;32.50;24.35;;;13.00;99.90;;;;;;5063600;28;20108;-61
2023/04/21 09:33:25;;;;;;;32.55;24.58;;;12.90;99.90;;;;;;5062375;28;20033;-60
2023/04/21 09:35:51;;;;;;;35.10;25.17;;;12.80;99.90;;;;;;5056060;28;20134;-61
2023/04/21 09:38:21;;;;;;;33.15;25.25;;;12.70;99.90;;;;;;5066249;28;20028;-61
2023/04/21 09:40:58;;;;;;;35.47;24.55;;;12.70;99.90;;;;;;5055192;28;20251;-61
2023/04/21 09:43:24;;;;;;;31.42;23.40;;;12.90;99.90;;;;;;5047115;28;20033;-61
2023/04/21 09:45:50;;;;;;;34.47;24.02;;;13.10;99.90;;;;;;5065241;28;20059;-60
2023/04/21 09:48:17;;;;;;;32.83;24.92;;;13.30;99.90;;;;;;5061014;27;20033;-60
2023/04/21 09:50:42;;;;;;;30.67;23.10;;;13.30;99.90;;;;;;5069361;28;20821;-60
2023/04/21 09:53:13;;;;;;;30.70;23.77;;;13.40;99.90;;;;;;5066535;27;20028;-60
2023/04/21 09:55:41;;;;;;;31.48;22.40;;;13.40;99.90;;;;;;5058976;27;20395;-60
2023/04/21 09:58:08;;;;;;;30.17;22.27;;;13.50;99.90;;;;;;5052300;28;20028;-60
2023/04/21 10:00:38;;;;;;;34.05;23.33;;;13.60;99.90;;;;;;5055170;28;20142;-60
2023/04/21 10:03:09;;;;;;;34.13;23.90;;;13.70;99.90;;;;;;5055597;28;20101;-60
2023/04/21 10:05:35;;;;;;;30.88;22.50;;;13.70;99.90;;;;;;5063975;27;20657;-60
2023/04/21 10:08:01;;;;;;;28.17;21.52;;;13.80;99.90;;;;;;5066828;27;20691;-60
2023/04/21 10:10:30;;;;;;;32.17;24.05;;;13.80;99.90;;;;;;5068107;28;20565;-60
2023/04/21 10:12:57;;;;;;;32.92;24.35;;;13.80;99.90;;;;;;5054711;28;20740;-60
2023/04/21 10:15:32;;;;;;;34.30;23.98;;;13.70;99.90;;;;;;5062822;28;20029;-60
2023/04/21 10:18:14;;;;;;;33.05;24.52;;;13.70;99.90;;;;;;5067859;27;20060;-60
2023/04/21 10:21:03;;;;;;;37.60;25.30;;;13.70;99.90;;;;;;5066248;27;20040;-60
2023/04/21 10:23:46;;;;;;;30.08;24.15;;;13.80;99.90;;;;;;5068573;28;20447;-60
2023/04/21 10:26:17;;;;;;;31.58;24.15;;;14.00;99.90;;;;;;5067799;27;20340;-60
2023/04/21 10:28:47;;;;;;;33.58;25.17;;;14.00;99.90;;;;;;5067152;27;20051;-60
2023/04/21 10:31:15;;;;;;;32.88;23.88;;;14.10;99.90;;;;;;5068784;27;20038;-60
2023/04/21 10:33:41;;;;;;;30.38;23.15;;;14.10;99.90;;;;;;5066604;27;20036;-60
2023/04/21 10:36:10;;;;;;;30.20;22.33;;;14.30;99.90;;;;;;5063166;27;20085;-61
2023/04/21 10:38:43;;;;;;;28.67;21.75;;;14.40;99.90;;;;;;5065485;28;20431;-60
2023/04/21 10:41:27;;;;;;;32.85;23.13;;;14.20;99.90;;;;;;5068348;28;20398;-60
2023/04/21 10:43:56;;;;;;;33.03;23.40;;;14.10;99.90;;;;;;5071290;28;20036;-61
2023/04/21 10:46:39;;;;;;;32.78;23.80;;;14.00;99.90;;;;;;5062575;28;20041;-60
2023/04/21 10:49:05;;;;;;;31.77;24.15;;;14.10;99.90;;;;;;5051602;28;20116;-60
2023/04/21 10:51:34;;;;;;;30.75;22.65;;;14.20;99.90;;;;;;5055513;28;20098;-60
2023/04/21 10:54:03;;;;;;;33.75;23.85;;;14.40;99.90;;;;;;5062002;27;20033;-60
2023/04/21 10:56:29;;;;;;;31.20;22.05;;;14.40;99.90;;;;;;5071339;28;20034;-60
2023/04/21 10:58:55;;;;;;;35.80;22.15;;;14.30;99.90;;;;;;5071802;28;20033;-61
2023/04/21 11:01:21;;;;;;;32.45;21.45;;;14.40;99.90;;;;;;5053937;28;20962;-60
2023/04/21 11:03:46;;;;;;;34.08;23.63;;;14.30;99.90;;;;;;5061738;28;20042;-60
2023/04/21 11:06:17;;;;;;;28.10;21.35;;;14.40;99.90;;;;;;5062112;28;20039;-60
2023/04/21 11:08:56;;;;;;;27.23;20.48;;;14.30;99.90;;;;;;5062060;27;20043;-60
2023/04/21 11:11:23;;;;;;;27.88;20.33;;;14.50;99.90;;;;;;5063465;27;20055;-61
2023/04/21 11:13:51;;;;;;;26.83;20.13;;;14.60;99.90;;;;;;5056759;28;20040;-56
2023/04/21 11:16:16;;;;;;;25.92;19.30;;;14.60;99.90;;;;;;5048379;28;20035;-56
2023/04/21 11:18:43;;;;;;;24.98;19.13;;;14.60;99.90;;;;;;5068431;28;20135;-55
2023/04/21 11:21:20;;;;;;;29.70;20.77;;;14.50;99.90;;;;;;5050766;28;20482;-56
2023/04/21 11:23:56;;;;;;;31.50;23.90;;;14.70;99.90;;;;;;5055648;28;20090;-56
2023/04/21 11:26:33;;;;;;;33.90;24.77;;;14.80;99.90;;;;;;5055523;27;20546;-56
2023/04/21 11:29:04;;;;;;;30.58;22.00;;;14.80;99.90;;;;;;5051797;28;20032;-55
2023/04/21 11:31:30;;;;;;;30.60;22.98;;;14.90;99.90;;;;;;5055436;28;20112;-55
2023/04/21 11:33:58;;;;;;;32.70;24.13;;;15.00;99.90;;;;;;5055976;28;20048;-56
2023/04/21 11:36:24;;;;;;;30.90;22.52;;;14.90;99.90;;;;;;5057851;28;20044;-56
2023/04/21 11:38:49;;;;;;;30.75;22.80;;;14.90;99.90;;;;;;5069746;27;20061;-55
2023/04/21 11:41:22;;;;;;;33.40;23.30;;;15.00;99.90;;;;;;5052440;28;20025;-55
2023/04/21 11:43:48;;;;;;;30.63;22.63;;;15.00;99.90;;;;;;5057846;28;20559;-55
2023/04/21 11:46:18;;;;;;;32.03;21.75;;;14.90;99.90;;;;;;5066117;27;20049;-56
2023/04/21 11:48:44;;;;;;;30.02;21.88;;;15.00;99.90;;;;;;5073345;27;20559;-55
2023/04/21 11:51:14;;;;;;;26.38;19.70;;;15.00;99.90;;;;;;5061694;27;20032;-55
2023/04/21 11:53:40;;;;;;;29.90;20.52;;;14.90;99.90;;;;;;5069478;27;20029;-56
2023/04/21 11:56:05;;;;;;;27.98;21.65;;;14.90;99.90;;;;;;5064137;27;20040;-55
2023/04/21 11:58:31;;;;;;;28.90;21.02;;;15.00;99.90;;;;;;5056822;28;20029;-55
2023/04/21 12:00:56;;;;;;;26.50;20.85;;;15.20;99.90;;;;;;5054718;28;20390;-55
2023/04/21 12:03:22;;;;;;;29.73;20.30;;;15.20;99.90;;;;;;5059161;28;20033;-55
2023/04/21 12:05:55;;;;;;;29.05;20.05;;;15.10;99.90;;;;;;5058729;28;20028;-55
2023/04/21 12:08:21;;;;;;;30.45;21.90;;;15.20;99.90;;;;;;5053805;27;20052;-55
2023/04/21 12:10:47;;;;;;;120.20;75.60;;;15.20;99.90;;;;;;5058486;28;20041;-54
2023/04/21 12:13:22;;;;;;;30.33;22.40;;;15.00;99.90;;;;;;5061600;27;20412;-55
2023/04/21 12:15:48;;;;;;;38.22;27.92;;;15.00;99.90;;;;;;5054032;28;20489;-55
2023/04/21 12:18:14;;;;;;;29.33;21.40;;;15.20;99.90;;;;;;5056379;28;20029;-55
2023/04/21 12:20:50;;;;;;;27.30;20.92;;;15.30;99.90;;;;;;5057149;28;20031;-54
2023/04/21 12:23:15;;;;;;;28.15;20.38;;;15.40;99.90;;;;;;5057621;27;20647;-54
2023/04/21 12:25:41;;;;;;;29.55;22.15;;;15.20;99.90;;;;;;5052693;28;20047;-55
2023/04/21 12:28:08;;;;;;;28.67;21.90;;;15.20;99.90;;;;;;5055267;28;20319;-54
2023/04/21 12:30:33;;;;;;;28.80;21.55;;;15.30;99.90;;;;;;5058793;28;20032;-55